createdAt,value
2022-10-28T00:00:14.983Z,13.90
2022-10-28T00:02:42.732Z,13.90
2022-10-28T00:05:10.983Z,13.90
2022-10-28T00:07:38.709Z,13.90
2022-10-28T00:10:07.662Z,13.90
2022-10-28T00:12:37.707Z,13.90
2022-10-28T00:15:06.793Z,13.90
2022-10-28T00:17:34.587Z,13.90
2022-10-28T00:20:02.336Z,13.80
2022-10-28T00:22:30.099Z,13.90
2022-10-28T00:24:57.866Z,13.90
2022-10-28T00:27:25.596Z,13.90
2022-10-28T00:29:54.652Z,13.90
2022-10-28T00:32:22.401Z,13.80
2022-10-28T00:34:50.143Z,13.80
2022-10-28T00:37:17.871Z,13.80
2022-10-28T00:39:45.619Z,13.80
2022-10-28T00:42:16.514Z,13.80
2022-10-28T00:44:59.568Z,13.80
2022-10-28T00:47:42.977Z,13.80
2022-10-28T00:50:23.285Z,13.80
2022-10-28T00:52:56.862Z,13.70
2022-10-28T00:55:25.719Z,13.70
2022-10-28T00:57:56.555Z,13.70
2022-10-28T01:00:26.852Z,13.70
2022-10-28T01:02:54.616Z,13.70
2022-10-28T01:05:27.025Z,13.70
2022-10-28T01:07:58.710Z,13.70
2022-10-28T01:10:37.535Z,13.60
2022-10-28T01:13:11.973Z,13.60
2022-10-28T01:15:50.530Z,13.60
2022-10-28T01:18:28.423Z,13.50
2022-10-28T01:21:21.663Z,13.50
2022-10-28T01:24:03.835Z,13.40
2022-10-28T01:26:52.382Z,13.40
2022-10-28T01:29:44.854Z,13.40
2022-10-28T01:32:18.453Z,13.40
2022-10-28T01:34:56.240Z,13.30
2022-10-28T01:37:33.682Z,13.30
2022-10-28T01:40:09.803Z,13.30
2022-10-28T01:42:42.987Z,13.30
2022-10-28T01:45:16.148Z,13.30
2022-10-28T01:47:51.365Z,13.30
2022-10-28T01:50:25.296Z,13.30
2022-10-28T01:52:57.718Z,13.30
2022-10-28T01:55:29.267Z,13.30
2022-10-28T01:58:00.279Z,13.30
2022-10-28T02:00:28.685Z,13.30
2022-10-28T02:02:57.832Z,13.30
2022-10-28T02:05:39.653Z,13.30
2022-10-28T02:08:23.667Z,13.20
2022-10-28T02:11:05.475Z,13.30
2022-10-28T02:13:45.287Z,13.30
2022-10-28T02:16:24.335Z,13.30
2022-10-28T02:19:03.182Z,13.30
2022-10-28T02:21:41.991Z,13.30
2022-10-28T02:24:15.670Z,13.30
2022-10-28T02:26:47.938Z,13.30
2022-10-28T02:29:21.780Z,13.30
2022-10-28T02:31:53.909Z,13.30
2022-10-28T02:34:26.867Z,13.20
2022-10-28T02:36:58.834Z,13.20
2022-10-28T02:39:32.073Z,13.20
2022-10-28T02:42:03.699Z,13.20
2022-10-28T02:44:35.297Z,13.20
2022-10-28T02:47:12.803Z,13.20
2022-10-28T02:49:46.869Z,13.20
2022-10-28T02:52:16.571Z,13.20
2022-10-28T02:54:48.768Z,13.20
2022-10-28T02:57:19.115Z,13.20
2022-10-28T02:59:53.777Z,13.20
2022-10-28T03:02:21.877Z,13.20
2022-10-28T03:04:51.068Z,13.20
2022-10-28T03:07:18.929Z,13.20
2022-10-28T03:09:46.676Z,13.20
2022-10-28T03:12:14.487Z,13.20
2022-10-28T03:14:42.395Z,13.20
2022-10-28T03:17:10.201Z,13.20
2022-10-28T03:19:37.954Z,13.20
2022-10-28T03:22:07.025Z,13.10
2022-10-28T03:24:34.855Z,13.10
2022-10-28T03:27:02.611Z,13.00
2022-10-28T03:29:30.415Z,13.00
2022-10-28T03:31:58.149Z,13.00
2022-10-28T03:34:25.912Z,13.10
2022-10-28T03:36:53.733Z,13.00
2022-10-28T03:39:22.818Z,13.10
2022-10-28T03:41:50.542Z,13.00
2022-10-28T03:44:18.306Z,13.00
2022-10-28T03:46:46.044Z,12.90
2022-10-28T03:49:13.777Z,12.90
2022-10-28T03:51:41.574Z,13.00
2022-10-28T03:54:09.291Z,12.90
2022-10-28T03:56:40.430Z,12.80
2022-10-28T03:59:09.405Z,12.90
2022-10-28T04:01:37.216Z,12.80
2022-10-28T04:04:05.149Z,12.80
2022-10-28T04:06:32.931Z,12.80
2022-10-28T04:09:00.943Z,12.80
2022-10-28T04:11:28.661Z,12.70
2022-10-28T04:13:57.732Z,12.80
2022-10-28T04:16:25.516Z,12.70
2022-10-28T04:18:53.340Z,12.70
2022-10-28T04:21:21.076Z,12.80
2022-10-28T04:23:48.900Z,12.90
2022-10-28T04:26:16.789Z,12.80
2022-10-28T04:28:44.534Z,12.60
2022-10-28T04:31:13.642Z,12.60
2022-10-28T04:33:41.539Z,12.70
2022-10-28T04:36:09.812Z,12.70
2022-10-28T04:38:37.572Z,12.90
2022-10-28T04:41:05.544Z,12.70
2022-10-28T04:43:33.276Z,12.90
2022-10-28T04:46:05.777Z,12.80
2022-10-28T04:48:35.054Z,12.90
2022-10-28T04:51:03.184Z,12.80
2022-10-28T04:53:30.923Z,12.90
2022-10-28T04:55:58.839Z,13.00
2022-10-28T04:58:27.600Z,12.90
2022-10-28T05:00:55.321Z,13.30
2022-10-28T05:03:23.125Z,13.10
2022-10-28T05:05:52.180Z,13.10
2022-10-28T05:08:19.950Z,13.40
2022-10-28T05:10:49.990Z,13.30
2022-10-28T05:13:17.808Z,13.30
2022-10-28T05:15:45.582Z,13.30
2022-10-28T05:18:13.341Z,13.30
2022-10-28T05:20:41.268Z,13.30
2022-10-28T05:23:10.656Z,13.30
2022-10-28T05:25:38.398Z,13.30
2022-10-28T05:28:06.389Z,13.40
2022-10-28T05:30:34.181Z,13.50
2022-10-28T05:33:02.620Z,13.40
2022-10-28T05:35:30.667Z,13.50
2022-10-28T05:37:58.734Z,13.50
2022-10-28T05:40:27.862Z,13.40
2022-10-28T05:42:55.968Z,13.30
2022-10-28T05:45:23.883Z,13.70
2022-10-28T05:47:52.128Z,13.60
2022-10-28T05:50:21.098Z,13.30
2022-10-28T05:52:49.591Z,13.30
2022-10-28T05:55:19.431Z,13.20
2022-10-28T05:57:49.393Z,13.30
2022-10-28T06:00:18.625Z,13.30
2022-10-28T06:02:46.586Z,13.20
2022-10-28T06:05:15.018Z,13.10
2022-10-28T06:07:43.570Z,13.40
2022-10-28T06:10:12.630Z,13.40
2022-10-28T06:12:38.889Z,13.00
2022-10-28T06:15:08.981Z,13.10
2022-10-28T06:17:36.837Z,13.10
2022-10-28T06:20:05.869Z,13.00
2022-10-28T06:22:33.619Z,13.20
2022-10-28T06:25:01.500Z,12.90
2022-10-28T06:27:29.247Z,12.90
2022-10-28T06:29:56.994Z,13.10
2022-10-28T06:32:26.054Z,13.00
2022-10-28T06:34:53.795Z,13.10
2022-10-28T06:37:21.510Z,13.10
2022-10-28T06:39:51.170Z,13.00
2022-10-28T06:42:19.123Z,13.00
2022-10-28T06:44:47.964Z,13.20
2022-10-28T06:47:17.217Z,13.10
2022-10-28T06:49:46.337Z,13.00
2022-10-28T06:52:14.050Z,13.50
2022-10-28T06:54:43.502Z,13.30
2022-10-28T06:57:11.342Z,13.20
2022-10-28T06:59:39.120Z,13.20
2022-10-28T07:02:07.343Z,13.30
2022-10-28T07:04:35.201Z,13.30
2022-10-28T07:07:04.635Z,13.10
2022-10-28T07:09:33.544Z,13.30
2022-10-28T07:12:04.886Z,13.30
2022-10-28T07:14:34.660Z,13.50
2022-10-28T07:17:02.492Z,13.70
2022-10-28T07:19:30.312Z,13.40
2022-10-28T07:21:58.060Z,13.60
2022-10-28T07:26:57.781Z,13.40
2022-10-28T07:29:25.773Z,13.40
2022-10-28T07:31:55.281Z,13.50
2022-10-28T07:34:26.897Z,13.60
2022-10-28T07:36:57.103Z,13.70
2022-10-28T07:39:24.999Z,13.90
2022-10-28T07:41:54.155Z,13.90
2022-10-28T07:44:21.955Z,13.70
2022-10-28T07:46:52.989Z,13.80
2022-10-28T07:49:23.494Z,13.90
2022-10-28T07:51:51.935Z,13.80
2022-10-28T07:54:19.733Z,14.20
2022-10-28T07:56:47.539Z,14.10
2022-10-28T07:59:16.602Z,14.10
2022-10-28T08:01:44.419Z,14.00
2022-10-28T08:04:12.229Z,14.20
2022-10-28T08:06:40.049Z,14.30
2022-10-28T08:09:07.863Z,14.30
2022-10-28T08:11:35.624Z,14.40
2022-10-28T08:14:03.495Z,14.40
2022-10-28T08:16:32.544Z,14.50
2022-10-28T08:19:03.999Z,14.50
2022-10-28T08:21:34.499Z,14.50
2022-10-28T08:24:02.276Z,14.60
2022-10-28T08:26:30.137Z,14.60
2022-10-28T08:28:58.164Z,14.70
2022-10-28T08:31:25.888Z,14.70
2022-10-28T08:33:54.985Z,14.70
2022-10-28T08:36:22.711Z,14.60
2022-10-28T08:38:50.449Z,14.60
2022-10-28T08:41:29.504Z,14.60
2022-10-28T08:44:13.792Z,14.60
2022-10-28T08:46:56.029Z,14.60
2022-10-28T08:49:25.594Z,14.70
2022-10-28T08:51:57.932Z,14.80
2022-10-28T08:54:30.348Z,14.80
2022-10-28T08:57:00.674Z,14.90
2022-10-28T08:59:33.196Z,15.00
2022-10-28T09:02:04.045Z,15.40
2022-10-28T09:04:38.702Z,15.10
2022-10-28T09:07:07.376Z,15.20
2022-10-28T09:09:35.151Z,15.30
2022-10-28T09:12:22.429Z,15.60
2022-10-28T09:15:10.691Z,15.60
2022-10-28T09:17:45.950Z,15.60
2022-10-28T09:20:20.027Z,15.70
2022-10-28T09:22:57.498Z,15.80
2022-10-28T09:25:34.312Z,15.80
2022-10-28T09:28:21.485Z,15.90
2022-10-28T09:30:57.357Z,15.90
2022-10-28T09:33:43.705Z,16.10
2022-10-28T09:36:18.368Z,16.10
2022-10-28T09:38:46.498Z,16.20
2022-10-28T09:41:18.422Z,16.30
2022-10-28T09:43:49.243Z,16.30
2022-10-28T09:46:18.932Z,16.40
2022-10-28T09:48:49.735Z,16.50
2022-10-28T09:51:27.315Z,16.50
2022-10-28T09:53:58.014Z,16.70
2022-10-28T09:56:26.527Z,16.80
2022-10-28T09:58:56.204Z,16.90
2022-10-28T10:01:24.058Z,16.90
2022-10-28T10:03:53.133Z,17.10
2022-10-28T10:06:27.153Z,17.10
2022-10-28T10:08:56.880Z,17.10
2022-10-28T10:11:32.193Z,17.10
2022-10-28T10:14:05.896Z,17.00
2022-10-28T10:16:40.648Z,17.10
2022-10-28T10:19:10.992Z,17.10
2022-10-28T10:21:45.806Z,17.20
2022-10-28T10:24:27.491Z,17.30
2022-10-28T10:26:56.052Z,17.30
2022-10-28T10:29:25.032Z,17.40
2022-10-28T10:32:07.895Z,17.50
2022-10-28T10:34:36.145Z,17.60
2022-10-28T10:37:05.627Z,17.50
2022-10-28T10:39:38.086Z,17.70
2022-10-28T10:42:16.333Z,17.60
2022-10-28T10:44:44.674Z,17.70
2022-10-28T10:47:21.618Z,17.90
2022-10-28T10:49:51.884Z,18.00
2022-10-28T10:52:25.800Z,18.10
2022-10-28T10:55:03.365Z,18.20
2022-10-28T10:57:32.768Z,18.20
2022-10-28T11:00:00.816Z,18.30
2022-10-28T11:02:31.818Z,18.40
2022-10-28T11:05:02.958Z,18.50
2022-10-28T11:07:33.664Z,18.50
2022-10-28T11:10:02.761Z,18.60
2022-10-28T11:12:35.092Z,18.70
2022-10-28T11:15:04.650Z,18.70
2022-10-28T11:17:34.250Z,18.80
2022-10-28T11:20:24.817Z,18.90
2022-10-28T11:23:09.425Z,18.90
2022-10-28T11:25:39.059Z,19.00
2022-10-28T11:28:22.039Z,19.00
2022-10-28T11:31:00.634Z,19.10
2022-10-28T11:33:37.702Z,19.20
2022-10-28T11:36:15.894Z,19.20
2022-10-28T11:39:01.373Z,19.20
2022-10-28T11:41:45.147Z,19.40
2022-10-28T12:00:02.328Z,19.60
2022-10-28T12:02:53.351Z,20.00
2022-10-28T12:05:25.265Z,20.20
2022-10-28T12:08:15.981Z,20.30
2022-10-28T12:10:58.319Z,20.00
2022-10-28T12:13:33.100Z,20.00
2022-10-28T12:16:08.862Z,20.10
2022-10-28T12:18:45.952Z,20.10
2022-10-28T12:21:21.023Z,20.00
2022-10-28T12:23:50.162Z,20.00
2022-10-28T12:26:20.987Z,19.80
2022-10-28T12:28:53.724Z,20.20
2022-10-28T12:31:25.442Z,19.80
2022-10-28T12:33:56.728Z,19.90
2022-10-28T12:36:32.953Z,19.90
2022-10-28T12:39:05.041Z,19.90
2022-10-28T12:41:47.631Z,20.00
2022-10-28T12:44:20.320Z,19.80
2022-10-28T12:46:57.079Z,19.80
2022-10-28T12:49:33.567Z,19.70
2022-10-28T12:52:09.493Z,19.90
2022-10-28T12:54:52.744Z,19.80
2022-10-28T12:57:25.539Z,19.80
2022-10-28T12:59:57.636Z,20.00
2022-10-28T13:04:56.216Z,19.90
2022-10-28T13:07:58.815Z,20.00
2022-10-28T13:10:36.801Z,20.10
2022-10-28T13:13:28.429Z,20.20
2022-10-28T13:16:20.927Z,20.30
2022-10-28T13:19:23.205Z,20.20
2022-10-28T13:22:15.609Z,20.30
2022-10-28T13:24:50.340Z,20.30
2022-10-28T13:27:18.929Z,20.40
2022-10-28T13:29:53.063Z,20.40
2022-10-28T13:32:37.349Z,20.50
2022-10-28T13:35:14.588Z,20.60
2022-10-28T13:40:22.407Z,20.80
2022-10-28T13:45:49.186Z,21.00
2022-10-28T13:48:45.124Z,21.10
2022-10-28T13:51:31.716Z,21.10
2022-10-28T13:53:59.515Z,21.10
2022-10-28T13:56:41.661Z,21.10
2022-10-28T13:59:23.113Z,21.00
2022-10-28T14:02:32.547Z,21.00
2022-10-28T14:04:59.868Z,20.90
2022-10-28T14:07:31.241Z,20.70
2022-10-28T14:10:19.094Z,20.60
2022-10-28T14:12:50.969Z,20.50
2022-10-28T14:15:23.482Z,20.40
2022-10-28T14:18:04.892Z,20.30
2022-10-28T14:20:41.137Z,20.20
2022-10-28T14:23:46.342Z,20.10
2022-10-28T14:26:14.103Z,20.00
2022-10-28T14:28:55.657Z,19.80
2022-10-28T14:31:44.768Z,19.70
2022-10-28T14:34:41.846Z,19.60
2022-10-28T14:37:41.765Z,19.50
2022-10-28T14:40:23.448Z,19.50
2022-10-28T14:43:06.480Z,19.40
2022-10-28T14:45:41.454Z,19.40
2022-10-28T14:48:34.401Z,19.40
2022-10-28T14:51:04.502Z,19.40
2022-10-28T14:53:36.326Z,19.30
2022-10-28T14:56:07.789Z,19.20
2022-10-28T14:58:39.140Z,19.20
2022-10-28T15:01:21.705Z,19.20
2022-10-28T15:03:51.913Z,19.10
2022-10-28T15:06:33.928Z,19.10
2022-10-28T15:09:16.651Z,19.00
2022-10-28T15:11:48.538Z,18.90
2022-10-28T15:14:26.233Z,18.90
2022-10-28T15:16:55.021Z,18.90
2022-10-28T15:19:25.984Z,18.80
2022-10-28T15:22:07.397Z,18.80
2022-10-28T15:24:35.455Z,18.70
2022-10-28T15:27:03.340Z,18.70
2022-10-28T15:29:32.248Z,18.70
2022-10-28T15:32:08.358Z,18.60
2022-10-28T15:34:36.495Z,18.50
2022-10-28T15:37:06.375Z,18.40
2022-10-28T15:39:34.879Z,18.40
2022-10-28T15:42:02.940Z,18.30
2022-10-28T15:44:36.214Z,18.30
2022-10-28T15:47:17.951Z,18.20
2022-10-28T15:49:56.514Z,18.20
2022-10-28T15:52:37.493Z,18.20
2022-10-28T15:55:41.611Z,18.10
2022-10-28T15:58:36.434Z,18.10
2022-10-28T16:01:08.377Z,18.10
2022-10-28T16:03:44.570Z,18.00
2022-10-28T16:06:25.234Z,18.00
2022-10-28T16:09:07.590Z,17.90
2022-10-28T16:11:39.294Z,17.90
2022-10-28T16:14:24.175Z,17.80
2022-10-28T16:16:52.225Z,17.80
2022-10-28T16:19:28.863Z,17.70
2022-10-28T16:21:56.997Z,17.70
2022-10-28T16:24:26.083Z,17.70
2022-10-28T16:26:53.831Z,17.70
2022-10-28T16:29:21.606Z,17.60
2022-10-28T16:31:52.218Z,17.60
2022-10-28T16:34:20.041Z,17.60
2022-10-28T16:36:47.785Z,17.50
2022-10-28T16:39:15.599Z,17.40
2022-10-28T16:41:44.708Z,17.40
2022-10-28T16:44:17.667Z,17.40
2022-10-28T16:46:45.483Z,17.30
2022-10-28T16:49:13.217Z,17.20
2022-10-28T16:51:40.968Z,17.20
2022-10-28T16:54:09.289Z,17.20
2022-10-28T16:56:37.059Z,17.10
2022-10-28T16:59:06.161Z,17.10
2022-10-28T17:01:34.137Z,17.00
2022-10-28T17:04:02.031Z,17.00
2022-10-28T17:06:29.748Z,17.00
2022-10-28T17:09:03.019Z,16.90
2022-10-28T17:14:04.044Z,16.90
2022-10-28T17:16:33.188Z,17.00
2022-10-28T17:19:01.072Z,17.00
2022-10-28T17:21:28.824Z,17.10
2022-10-28T17:23:56.587Z,17.10
2022-10-28T17:26:24.355Z,17.10
2022-10-28T17:28:52.906Z,17.00
2022-10-28T17:31:24.815Z,17.00
2022-10-28T17:33:55.546Z,17.00
2022-10-28T17:36:24.092Z,17.00
2022-10-28T17:38:51.863Z,17.00
2022-10-28T17:41:19.964Z,16.90
2022-10-28T17:43:47.704Z,16.90
2022-10-28T17:46:15.444Z,16.90
2022-10-28T17:48:43.200Z,16.90
2022-10-28T17:51:12.545Z,16.90
2022-10-28T17:53:40.433Z,16.90
2022-10-28T17:56:09.206Z,16.90
2022-10-28T17:58:37.138Z,17.00
2022-10-28T18:01:07.330Z,17.10
2022-10-28T18:03:38.994Z,17.10
2022-10-28T18:06:09.185Z,17.10
2022-10-28T18:08:40.113Z,17.10
2022-10-28T18:11:09.451Z,17.10
2022-10-28T18:13:39.275Z,17.20
2022-10-28T18:16:09.032Z,17.10
2022-10-28T18:18:41.154Z,17.20
2022-10-28T18:21:11.013Z,17.20
2022-10-28T18:23:40.891Z,17.20
2022-10-28T18:26:11.960Z,17.20
2022-10-28T18:28:40.576Z,17.20
2022-10-28T18:31:10.549Z,17.10
2022-10-28T18:33:38.650Z,17.10
2022-10-28T18:36:08.314Z,17.10
2022-10-28T18:38:36.097Z,17.00
2022-10-28T18:41:05.268Z,17.00
2022-10-28T18:43:32.995Z,17.00
2022-10-28T18:46:02.935Z,17.00
2022-10-28T18:48:31.824Z,17.10
2022-10-28T18:51:00.497Z,17.10
2022-10-28T18:53:28.799Z,17.20
2022-10-28T18:56:00.694Z,17.20
2022-10-28T18:58:29.907Z,17.30
2022-10-28T19:01:05.291Z,17.40
2022-10-28T19:03:33.065Z,17.40
2022-10-28T19:06:05.326Z,17.50
2022-10-28T19:08:33.384Z,17.50
2022-10-28T19:11:02.307Z,17.60
2022-10-28T19:13:34.179Z,17.60
2022-10-28T19:16:02.018Z,17.60
2022-10-28T19:18:30.250Z,17.60
2022-10-28T19:21:04.067Z,17.70
2022-10-28T19:23:32.489Z,17.80
2022-10-28T19:26:00.864Z,17.80
2022-10-28T19:28:29.159Z,17.90
2022-10-28T19:31:02.795Z,17.90
2022-10-28T19:33:32.062Z,17.90
2022-10-28T19:36:04.819Z,18.00
2022-10-28T19:38:34.154Z,18.00
2022-10-28T19:41:03.608Z,18.10
2022-10-28T19:43:31.382Z,18.20
2022-10-28T19:46:10.145Z,18.20
2022-10-28T19:48:38.801Z,18.20
2022-10-28T19:51:07.033Z,18.20
2022-10-28T19:53:35.213Z,18.20
2022-10-28T19:56:05.027Z,18.10
2022-10-28T19:58:33.397Z,18.10
2022-10-28T20:01:03.696Z,18.10
2022-10-28T20:03:35.121Z,18.00
2022-10-28T20:06:06.808Z,18.00
2022-10-28T20:08:36.188Z,17.90
2022-10-28T20:11:05.742Z,17.90
2022-10-28T20:13:34.061Z,17.80
2022-10-28T20:16:03.584Z,17.80
2022-10-28T20:18:33.537Z,17.70
2022-10-28T20:21:06.021Z,17.70
2022-10-28T20:23:35.787Z,17.60
2022-10-28T20:26:04.222Z,17.60
2022-10-28T20:28:32.601Z,17.50
2022-10-28T20:31:01.995Z,17.50
2022-10-28T20:33:31.189Z,17.50
2022-10-28T20:36:00.655Z,17.50
2022-10-28T20:38:29.387Z,17.50
2022-10-28T20:40:59.321Z,17.50
2022-10-28T20:43:28.923Z,17.40
2022-10-28T20:45:58.674Z,17.40
2022-10-28T20:48:27.743Z,17.30
2022-10-28T20:50:57.928Z,17.30
2022-10-28T20:53:28.610Z,17.30
2022-10-28T20:55:57.263Z,17.20
2022-10-28T20:58:28.581Z,17.20
2022-10-28T21:01:03.006Z,17.10
2022-10-28T21:03:30.848Z,17.10
2022-10-28T21:05:58.720Z,17.10
2022-10-28T21:08:27.980Z,17.10
2022-10-28T21:10:55.742Z,17.00
2022-10-28T21:13:23.481Z,17.10
2022-10-28T21:15:56.416Z,17.00
2022-10-28T21:18:25.996Z,17.00
2022-10-28T21:20:56.469Z,17.00
2022-10-28T21:23:24.400Z,17.00
2022-10-28T21:25:57.551Z,17.00
2022-10-28T21:28:25.380Z,17.00
2022-10-28T21:30:53.285Z,16.90
2022-10-28T21:33:21.573Z,16.90
2022-10-28T21:35:56.945Z,16.90
2022-10-28T21:38:25.524Z,16.90
2022-10-28T21:41:01.470Z,16.90
2022-10-28T21:43:30.850Z,16.90
2022-10-28T21:45:58.955Z,16.90
2022-10-28T21:48:27.370Z,16.90
2022-10-28T21:50:56.618Z,16.80
2022-10-28T21:53:25.272Z,16.80
2022-10-28T21:55:55.503Z,16.80
2022-10-28T21:58:24.876Z,16.70
2022-10-28T22:00:52.685Z,16.60
2022-10-28T22:03:20.423Z,16.50
2022-10-28T22:05:51.519Z,16.50
2022-10-28T22:08:19.269Z,16.50
2022-10-28T22:10:47.015Z,16.40
2022-10-28T22:13:14.746Z,16.40
2022-10-28T22:15:43.848Z,16.40
2022-10-28T22:18:11.625Z,16.30
2022-10-28T22:20:39.360Z,16.30
2022-10-28T22:23:07.089Z,16.30
2022-10-28T22:25:34.865Z,16.30
2022-10-28T22:28:02.613Z,16.30
2022-10-28T22:30:30.331Z,16.30
2022-10-28T22:32:59.470Z,16.30
2022-10-28T22:35:27.300Z,16.30
2022-10-28T22:37:55.335Z,16.30
2022-10-28T22:40:23.265Z,16.30
2022-10-28T22:42:51.001Z,16.20
2022-10-28T22:45:18.751Z,16.20
2022-10-28T22:47:46.522Z,16.20
2022-10-28T22:50:15.728Z,16.20
2022-10-28T22:52:43.455Z,16.20
2022-10-28T22:55:11.497Z,16.20
2022-10-28T22:57:39.354Z,16.20
2022-10-28T23:00:08.580Z,16.10
2022-10-28T23:02:36.478Z,16.10
2022-10-28T23:05:04.565Z,16.10
2022-10-28T23:07:33.698Z,16.10
2022-10-28T23:10:01.464Z,16.00
2022-10-28T23:12:29.245Z,16.00
2022-10-28T23:14:58.557Z,16.00
2022-10-28T23:17:26.294Z,16.00
2022-10-28T23:19:54.041Z,16.00
2022-10-28T23:22:21.823Z,15.90
2022-10-28T23:24:50.935Z,15.90
2022-10-28T23:27:18.684Z,15.80
2022-10-28T23:29:46.443Z,15.70
2022-10-28T23:32:14.238Z,15.70
2022-10-28T23:34:41.980Z,15.70
2022-10-28T23:37:09.757Z,15.70
2022-10-28T23:39:37.463Z,15.70
2022-10-28T23:42:06.801Z,15.70
2022-10-28T23:44:34.565Z,15.70
2022-10-28T23:47:02.295Z,15.70
2022-10-28T23:49:30.037Z,15.70
2022-10-28T23:51:57.762Z,15.70
2022-10-28T23:54:25.496Z,15.60
2022-10-28T23:56:53.308Z,15.60
2022-10-28T23:59:22.362Z,15.60
